Albigeoise série mondiale Gran Fondo - 26/05/2017

97 Km Féminin

96 participants classés


Retour au Sommaire - Signaler une erreur - Faire défiler





1 2 /fin /tout

page suivante ->

Pl Do. Nom - Surname Prénom - Name S-Cat /cat Club - Team TEMPS - Time Km/h /sx
1 2147 LONGO JEANNIE FF6 1 CAVIGAL NICE SPORT 02:39:25 36,51 1
2 2059 MAGNALDI ERICA FF1 1 TEAM DE ROSA SANTINI 02:39:25 36,5 2
3 2039 ROGNANT VIVIANE FF2 1 Clarac Comminges Cyclisme 02:39:26 36,5 3
4 2054 BESSONE MARION FF1 2 RO SANARY 02:39:29 36,49 4
5 2094 NACIO-CASALIES FLORENCE FF4 1   02:39:30 36,49 5
6 2098 RIEDLE SYLVIE FF4 2 U.C.Bassin Houiller 02:44:32 35,37 6
7 2036 LEACH BELLA FF2 2 SQUADRA LA FUGA 02:44:32 35,37 7
8 2043 SCHULLER CÉLINE FF2 3   02:44:32 35,37 8
9 2007 GROS STEPHANIE FF3 1 VC VINCENNES 02:44:32 35,37 9
10 2083 DE SAINT JEAN MAGDALENA FF4 3 Green Cycling - Patrouille Eco Cyclo 02:44:33 35,37 10
11 2040 SABIN TEYSSEDRE PAULINE FF2 4 VELO CLUB RODEZ 02:44:33 35,37 11
12 2006 FONTEIN ERNA FF3 2 APC12 02:44:33 35,37 12
13 2003 DAZA ASUMENDI MONIKA FF3 3 BERA BERA R.T. 02:44:33 35,37 13
14 2096 PETROLINI MARTINE FF4 4 GPCC 31 02:44:34 35,36 14
15 1120 BAUD STEPHANIE FF1 3 PRODIALOG DAVID DEREPAS 02:47:44 34,7 15
16 2060 POLIZZI SANDRINE FF1 4 TEAM SPOC NICE 02:47:44 34,69 16
17 2033 DUPONT EMMANUELLE FF2 5 Green Cycling - Patrouille Eco Cyclo 02:47:45 34,69 17
18 2143 CARCERONI GILLES CLAUDIA FF6 2 ALBI VELO SPORT 02:47:45 34,69 18
19 2034 EVRARD SOPHIE FF2 6 Green Cycling - Patrouille Eco Cyclo 02:47:46 34,69 19
20 2010 LAURENDON AMELIE FF3 4 CR Saint Chamond 02:47:46 34,69 20
21 2013 SAYSSET KARINE FF3 5 TEAM MONTAGNAC A. C. 02:47:46 34,69 21
22 2063 SELAN DUNJA FF1 5 tus team 02:47:46 34,69 22
23 2081 BLONDIN NATHALIE FF4 5   02:48:04 34,63 23
24 2009 JULIEN CHRISTEL FF3 6 REVEL SPRINTER CLUB 02:50:48 34,07 24
25 2070 CANTELE PAULINE FF1 6 VC MONTOIS 02:50:51 34,06 25
26 2064 SIMONOVA MONIKA FF1 7   02:53:26 33,55 26
27 2131 FLETCHER TRACEY FF5 1 Team Moda 02:53:27 33,55 27
28 2091 LILLEY ALISON FF4 6 Fenland Clarion Cycling Club 02:53:27 33,55 28
29 2087 HAK CHRISTEL FF4 7 VELO CLUB MENDE LOZERE 02:53:27 33,55 29
30 2067 THIEBAULT MARINE FF1 8 Club Omnisports de Courcouronnes Cyclisme Féminin 02:53:28 33,55 30
31 2133 NAON CORINNE FF5 2   02:53:28 33,55 31
32 2066 TASTAVIN OFÉLIE FF1 9 VELO CLUB SALINDRES 02:58:06 32,68 32
33 2035 GARDEY DELPHINE FF2 7 equipe de france police 02:58:08 32,67 33
34 2149 TOOZS HOBSON GILLIANE FF6 3 VELO SPRINT NARBONNAIS 02:58:08 32,67 34
35 2082 BREDARD CHRISTELLE FF4 8 CS DOURDANNAIS 02:58:08 32,67 35
36 2103 TORIO SYLVIA FF4 9 Green Cycling - Patrouille Eco Cyclo 02:58:08 32,67 36
37 2142 CABELLA PATRIZIA FF6 4 ERREBI 02:58:09 32,67 37
38 2145 ENDICOTT LINDA FF6 5 SQUADRA LA FUGA 02:58:09 32,67 38
39 2032 BURROWS DENISE FF2 8 Wyre Forest CRC 02:58:11 32,66 39
40 2053 ANDRIEUX ESTELLE FF1 10 GSC BLAGNAC 02:58:13 32,66 40
41 2121 BERTRAND ANNE MARIE FF5 3 CHAMROUSSE TEAM CYCLOSPORT 02:58:14 32,65 41
42 2127 DURU CLOTHILDE FF5 4 SCJ CYCLISME 02:58:14 32,65 42
43 2092 LIMOUZY AMBRE FF4 10 AS QUILLAN 02:58:41 32,57 43
44 2164 NIEMERICH NADINE FF7 1   02:59:23 32,44 44
45 2002 DALMASSO CRISTEL FF3 7 MBC NICE 02:59:23 32,44 45
46 2095 PELLETIER DOMINIQUE FF4 11 DIJON SINGLETRACK 03:00:58 32,16 46
47 2011 ROMAN SÉVERINE FF3 8 VELO CLUB BAILLY NOISY 03:06:10 31,26 47
48 2085 DUNCAN SUZY FF4 12 COUSERANS CYCLISTE 03:06:11 31,26 48
49 2168 VALKS MARTI FF7 2 GWC DE ADELAAR 03:06:11 31,26 49
50 2125 CHAVANT VALERIE FF5 5 MURET CYCLISTE 03:06:14 31,25 50

Aucun commentaires pour le moment, donnez votre avis, vos impressions avant, pendant! et après la course

Déjà membre? Identifiez-vous pour commenter l'épreuve ou créer un compte